Time,TemperatureF,DewpointF,PressureIn,WindDirection,WindDirectionDegrees,WindSpeedMPH,WindSpeedGustMPH,Humidity,HourlyPrecipIn,Conditions,Clouds,dailyrainin,SoftwareType,DateUTC
2013-07-19 02:00:00,67.0,55.0,30.20,ENE,70,6.0,-999.0,65,-99.99,,,-99.99,,2013-07-19 02:00:00,
2013-07-19 02:42:00,67.0,55.0,30.20,ENE,70,6.0,-999.0,65,-99.99,,,-99.99,,2013-07-19 02:42:00,
2013-07-19 02:52:00,67.0,55.0,30.20,ENE,70,6.0,-999.0,65,-99.99,,,-99.99,,2013-07-19 02:52:00,
2013-07-19 03:00:00,62.0,52.0,30.21,SW,220,5.0,-999.0,71,-99.99,,,-99.99,,2013-07-19 03:00:00,
2013-07-19 03:42:00,62.0,52.0,30.21,SW,220,5.0,-999.0,71,-99.99,,,-99.99,,2013-07-19 03:42:00,
2013-07-19 03:52:00,62.0,52.0,30.21,SW,220,5.0,-999.0,71,-99.99,,,-99.99,,2013-07-19 03:52:00,
2013-07-19 04:00:00,62.0,53.0,30.22,SW,230,2.0,-999.0,71,-99.99,,,-99.99,,2013-07-19 04:00:00,
2013-07-19 04:43:00,62.0,53.0,30.22,SW,230,2.0,-999.0,71,-99.99,,,-99.99,,2013-07-19 04:43:00,
2013-07-19 04:52:00,62.0,53.0,30.22,SW,230,2.0,-999.0,71,-99.99,,,-99.99,,2013-07-19 04:52:00,
2013-07-19 05:00:00,65.0,57.0,30.22,ENE,70,2.0,-999.0,76,-99.99,,,-99.99,,2013-07-19 05:00:00,
2013-07-19 05:42:00,65.0,57.0,30.22,ENE,70,2.0,-999.0,76,-99.99,,,-99.99,,2013-07-19 05:42:00,
2013-07-19 05:52:00,65.0,57.0,30.22,ENE,70,2.0,-999.0,76,-99.99,,,-99.99,,2013-07-19 05:52:00,
2013-07-19 06:00:00,66.0,58.0,30.23,SW,230,1.0,-999.0,77,-99.99,,,-99.99,,2013-07-19 06:00:00,
2013-07-19 06:52:00,66.0,58.0,30.23,SW,230,1.0,-999.0,77,-99.99,,,-99.99,,2013-07-19 06:52:00,
2013-07-19 07:00:00,61.0,57.0,30.25,WSW,250,3.0,-999.0,86,-99.99,,,-99.99,,2013-07-19 07:00:00,
2013-07-19 07:43:00,61.0,57.0,30.25,WSW,250,3.0,-999.0,86,-99.99,,,-99.99,,2013-07-19 07:43:00,
2013-07-19 07:53:00,61.0,57.0,30.25,WSW,250,3.0,-999.0,86,-99.99,,,-99.99,,2013-07-19 07:53:00,
2013-07-19 08:00:00,63.0,58.0,30.26,WNW,300,3.0,-999.0,81,-99.99,,,-99.99,,2013-07-19 08:00:00,
2013-07-19 08:43:00,63.0,58.0,30.26,WNW,300,3.0,-999.0,81,-99.99,,,-99.99,,2013-07-19 08:43:00,
2013-07-19 08:52:00,63.0,58.0,30.26,WNW,300,3.0,-999.0,81,-99.99,,,-99.99,,2013-07-19 08:52:00,
2013-07-19 09:00:00,62.0,57.0,30.27,South,190,1.0,-999.0,84,-99.99,,,-99.99,,2013-07-19 09:00:00,
2013-07-19 09:43:00,62.0,57.0,30.27,South,190,1.0,-999.0,84,-99.99,,,-99.99,,2013-07-19 09:43:00,
2013-07-19 09:52:00,62.0,57.0,30.27,South,190,1.0,-999.0,84,-99.99,,,-99.99,,2013-07-19 09:52:00,
2013-07-19 11:00:00,67.0,55.0,30.27,WNW,300,2.0,-999.0,66,-99.99,,,-99.99,,2013-07-19 11:00:00,
2013-07-19 11:32:00,67.0,55.0,30.27,WNW,300,2.0,-999.0,66,-99.99,,,-99.99,,2013-07-19 11:32:00,
2013-07-19 11:42:00,67.0,55.0,30.27,WNW,300,2.0,-999.0,66,-99.99,,,-99.99,,2013-07-19 11:42:00,
2013-07-19 11:52:00,67.0,55.0,30.27,WNW,300,2.0,-999.0,66,-99.99,,,-99.99,,2013-07-19 11:52:00,
2013-07-19 12:00:00,65.0,53.0,30.28,NW,310,2.0,-999.0,64,-99.99,,,-99.99,,2013-07-19 12:00:00,
2013-07-19 12:43:00,65.0,53.0,30.28,NW,310,2.0,-999.0,64,-99.99,,,-99.99,,2013-07-19 12:43:00,
2013-07-19 12:52:00,65.0,53.0,30.28,NW,310,2.0,-999.0,64,-99.99,,,-99.99,,2013-07-19 12:52:00,
2013-07-19 13:00:00,65.0,52.0,30.28,WSW,240,2.0,-999.0,64,-99.99,,,-99.99,,2013-07-19 13:00:00,
2013-07-19 13:43:00,65.0,52.0,30.28,WSW,240,2.0,-999.0,64,-99.99,,,-99.99,,2013-07-19 13:43:00,
2013-07-19 13:53:00,65.0,52.0,30.28,WSW,240,2.0,-999.0,64,-99.99,,,-99.99,,2013-07-19 13:53:00,
2013-07-19 14:00:00,60.0,55.0,30.30,SW,230,1.0,-999.0,81,-99.99,,,-99.99,,2013-07-19 14:00:00,
2013-07-19 14:33:00,60.0,55.0,30.30,SW,230,1.0,-999.0,81,-99.99,,,-99.99,,2013-07-19 14:33:00,
2013-07-19 14:43:00,60.0,55.0,30.30,SW,230,1.0,-999.0,81,-99.99,,,-99.99,,2013-07-19 14:43:00,
2013-07-19 14:52:00,60.0,55.0,30.30,SW,230,1.0,-999.0,81,-99.99,,,-99.99,,2013-07-19 14:52:00,
2013-07-19 16:00:00,60.0,55.0,30.29,NNW,330,1.0,-999.0,82,-99.99,,,-99.99,,2013-07-19 16:00:00,
2013-07-19 16:32:00,60.0,55.0,30.29,NNW,330,1.0,-999.0,82,-99.99,,,-99.99,,2013-07-19 16:32:00,
2013-07-19 16:42:00,60.0,55.0,30.29,NNW,330,1.0,-999.0,82,-99.99,,,-99.99,,2013-07-19 16:42:00,
2013-07-19 16:52:00,60.0,55.0,30.29,NNW,330,1.0,-999.0,82,-99.99,,,-99.99,,2013-07-19 16:52:00,
2013-07-19 17:00:00,61.0,54.0,30.30,NW,320,2.0,-999.0,78,-99.99,,,-99.99,,2013-07-19 17:00:00,
2013-07-19 17:32:00,61.0,54.0,30.30,NW,320,2.0,-999.0,78,-99.99,,,-99.99,,2013-07-19 17:32:00,
2013-07-19 17:43:00,61.0,54.0,30.30,NW,320,2.0,-999.0,78,-99.99,,,-99.99,,2013-07-19 17:43:00,
2013-07-19 17:52:00,61.0,54.0,30.30,NW,320,2.0,-999.0,78,-99.99,,,-99.99,,2013-07-19 17:52:00,
2013-07-19 18:00:00,67.0,50.0,30.30,SSW,200,8.0,-999.0,54,-99.99,,,-99.99,,2013-07-19 18:00:00,
2013-07-19 18:52:00,67.0,50.0,30.30,SSW,200,8.0,-999.0,54,-99.99,,,-99.99,,2013-07-19 18:52:00,
2013-07-19 19:00:00,66.0,50.0,30.29,SW,230,10.0,-999.0,55,-99.99,,,-99.99,,2013-07-19 19:00:00,
2013-07-19 19:42:00,66.0,50.0,30.29,SW,230,10.0,-999.0,55,-99.99,,,-99.99,,2013-07-19 19:42:00,
2013-07-19 19:52:00,66.0,50.0,30.29,SW,230,10.0,-999.0,55,-99.99,,,-99.99,,2013-07-19 19:52:00,
2013-07-19 20:00:00,65.0,50.0,30.29,WSW,240,7.0,-999.0,58,-99.99,,,-99.99,,2013-07-19 20:00:00,
2013-07-19 20:43:00,65.0,50.0,30.29,WSW,240,7.0,-999.0,58,-99.99,,,-99.99,,2013-07-19 20:43:00,
2013-07-19 20:52:00,65.0,50.0,30.29,WSW,240,7.0,-999.0,58,-99.99,,,-99.99,,2013-07-19 20:52:00,
2013-07-19 21:00:00,65.0,50.0,30.30,East,90,3.0,-999.0,58,-99.99,,,-99.99,,2013-07-19 21:00:00,
2013-07-19 21:42:00,65.0,50.0,30.30,East,90,3.0,-999.0,58,-99.99,,,-99.99,,2013-07-19 21:42:00,
2013-07-19 21:52:00,65.0,50.0,30.30,East,90,3.0,-999.0,58,-99.99,,,-99.99,,2013-07-19 21:52:00,
2013-07-19 22:00:00,66.0,49.0,30.30,SW,230,7.0,-999.0,54,-99.99,,,-99.99,,2013-07-19 22:00:00,
2013-07-19 22:42:00,66.0,49.0,30.30,SW,230,7.0,-999.0,54,-99.99,,,-99.99,,2013-07-19 22:42:00,
2013-07-19 22:52:00,66.0,49.0,30.30,SW,230,7.0,-999.0,54,-99.99,,,-99.99,,2013-07-19 22:52:00,
2013-07-19 23:00:00,69.0,49.0,30.28,SW,220,9.0,-999.0,48,-99.99,,,-99.99,,2013-07-19 23:00:00,
2013-07-19 23:43:00,69.0,49.0,30.28,SW,220,9.0,-999.0,48,-99.99,,,-99.99,,2013-07-19 23:43:00,
2013-07-19 23:52:00,69.0,49.0,30.28,SW,220,9.0,-999.0,48,-99.99,,,-99.99,,2013-07-19 23:52:00,